Time;durP1;ratioP1;P1;durP2;ratioP2;P2;SDS_P1;SDS_P2;PMS_P1;PMS_P2;Temp;Humidity;BMP_temperature;BMP_pressure;BME280_temperature;BME280_humidity;BME280_pressure;Samples;Min_cycle;Max_cycle;Signal;HPM_P1;HPM_P2
2022/07/28 00:01:18;;;;;;;7.03;1.70;;;13.70;99.90;;;;;;5112257;28;20229;-64
2022/07/28 00:03:47;;;;;;;2.40;1.00;;;13.70;99.90;;;;;;5112246;28;20220;-64
2022/07/28 00:06:14;;;;;;;3.87;1.13;;;13.70;99.90;;;;;;5111598;28;20226;-64
2022/07/28 00:08:42;;;;;;;1.77;1.37;;;13.70;99.90;;;;;;5112018;28;20255;-63
2022/07/28 00:11:08;;;;;;;2.83;1.40;;;13.70;99.90;;;;;;5111688;28;20233;-64
2022/07/28 00:13:35;;;;;;;4.37;1.40;;;13.60;99.90;;;;;;5112189;28;20263;-64
2022/07/28 00:16:02;;;;;;;1.27;1.17;;;13.60;99.90;;;;;;5111625;28;20241;-64
2022/07/28 00:18:29;;;;;;;3.43;1.20;;;13.60;99.90;;;;;;5111976;28;20220;-64
2022/07/28 00:20:56;;;;;;;1.53;1.10;;;13.60;99.90;;;;;;5111890;28;20279;-64
2022/07/28 00:23:23;;;;;;;5.37;1.40;;;13.60;99.90;;;;;;5111760;28;20717;-64
2022/07/28 00:25:51;;;;;;;3.03;1.10;;;13.50;99.90;;;;;;5112029;28;20214;-64
2022/07/28 00:28:18;;;;;;;1.93;1.20;;;13.50;99.90;;;;;;5112100;28;20249;-64
2022/07/28 00:30:44;;;;;;;3.90;1.10;;;13.50;99.90;;;;;;5111990;28;20275;-63
2022/07/28 00:33:11;;;;;;;3.40;1.37;;;13.50;99.90;;;;;;5111805;28;20213;-64
2022/07/28 00:35:38;;;;;;;2.63;1.13;;;13.40;99.90;;;;;;5111691;28;20688;-64
2022/07/28 00:38:05;;;;;;;2.53;1.30;;;13.40;99.90;;;;;;5110876;28;20237;-64
2022/07/28 00:43:17;;;;;;;2.67;1.27;;;13.40;99.90;;;;;;5111496;28;20262;-63
2022/07/28 00:45:44;;;;;;;3.80;1.30;;;13.30;99.90;;;;;;5111910;28;20210;-63
2022/07/28 00:48:10;;;;;;;3.07;1.40;;;13.30;99.90;;;;;;5111083;28;20257;-64
2022/07/28 00:50:39;;;;;;;2.33;1.50;;;13.30;99.90;;;;;;5111532;28;20224;-64
2022/07/28 00:53:07;;;;;;;4.30;1.57;;;13.20;99.90;;;;;;5115192;28;20265;-64
2022/07/28 00:55:33;;;;;;;3.17;1.60;;;13.20;99.90;;;;;;5115338;28;20207;-64
2022/07/28 00:58:01;;;;;;;4.57;1.20;;;13.20;99.90;;;;;;5114738;28;20223;-64
2022/07/28 01:00:29;;;;;;;7.97;1.43;;;13.20;99.90;;;;;;5115182;28;20669;-64
2022/07/28 01:02:56;;;;;;;2.33;1.23;;;13.20;99.90;;;;;;5115058;28;20239;-64
2022/07/28 01:05:23;;;;;;;2.47;1.17;;;13.10;99.90;;;;;;5114937;28;20252;-64
2022/07/28 01:07:57;;;;;;;3.40;1.50;;;13.10;99.90;;;;;;5114745;28;20570;-63
2022/07/28 01:10:34;;;;;;;7.53;1.70;;;13.10;99.90;;;;;;5115041;28;20290;-63
2022/07/28 01:13:11;;;;;;;3.13;1.30;;;13.00;99.90;;;;;;5114902;28;20275;-63
2022/07/28 01:15:46;;;;;;;2.90;1.67;;;13.00;99.90;;;;;;5114808;28;20633;-64
2022/07/28 01:18:18;;;;;;;1.80;1.20;;;13.00;99.90;;;;;;5114488;27;20292;-64
2022/07/28 01:20:47;;;;;;;4.87;1.43;;;13.00;99.90;;;;;;5114744;27;20224;-63
2022/07/28 01:23:42;;;;;;;3.93;1.57;;;13.00;99.90;;;;;;5114688;28;20265;-63
2022/07/28 01:26:26;;;;;;;1.90;1.30;;;13.00;1.00;;;;;;5103772;27;20204;-63
2022/07/28 01:29:08;;;;;;;3.27;1.53;;;13.00;1.00;;;;;;5114768;28;20207;-63
2022/07/28 01:31:39;;;;;;;2.47;1.50;;;12.90;1.00;;;;;;5114601;27;20215;-63
2022/07/28 01:34:08;;;;;;;4.10;1.40;;;12.90;1.00;;;;;;5114555;28;20203;-62
2022/07/28 01:36:41;;;;;;;2.33;1.30;;;12.90;1.00;;;;;;5114089;28;20220;-63
2022/07/28 01:39:09;;;;;;;3.90;1.60;;;12.80;1.00;;;;;;5114567;28;20233;-63
2022/07/28 01:41:37;;;;;;;4.67;1.27;;;12.90;1.00;;;;;;5114689;28;20204;-63
2022/07/28 01:44:08;;;;;;;1.80;1.30;;;12.80;1.00;;;;;;5114613;28;20212;-63
2022/07/28 01:46:37;;;;;;;5.03;1.27;;;12.80;1.00;;;;;;5115379;28;20855;-63
2022/07/28 01:49:05;;;;;;;1.90;1.30;;;12.80;1.00;;;;;;5114599;28;20718;-64
2022/07/28 01:51:34;;;;;;;4.83;1.30;;;12.80;1.00;;;;;;5116199;28;20250;-63
2022/07/28 01:54:02;;;;;;;3.20;1.30;;;12.80;1.00;;;;;;5117529;28;20270;-64
2022/07/28 01:56:31;;;;;;;3.20;1.40;;;12.80;1.00;;;;;;5113936;28;20208;-63
2022/07/28 01:59:02;;;;;;;3.90;1.50;;;12.80;6.00;;;;;;5114164;28;20227;-63
2022/07/28 02:01:35;;;;;;;4.87;1.20;;;12.70;39.50;;;;;;5113969;27;20229;-63
2022/07/28 02:04:04;;;;;;;2.60;1.20;;;12.80;68.10;;;;;;5113987;28;20205;-64
2022/07/28 02:06:33;;;;;;;2.07;1.20;;;12.70;63.60;;;;;;5113459;28;20205;-63
2022/07/28 02:09:02;;;;;;;6.03;1.70;;;12.70;95.90;;;;;;5113877;28;20200;-63
2022/07/28 02:11:39;;;;;;;1.93;1.40;;;12.70;99.90;;;;;;5113775;27;20220;-63
2022/07/28 02:14:07;;;;;;;6.80;1.60;;;12.60;99.90;;;;;;5113567;28;20688;-64
2022/07/28 02:16:34;;;;;;;4.10;1.43;;;12.60;99.90;;;;;;5113317;27;20205;-63
2022/07/28 02:19:04;;;;;;;3.93;1.50;;;12.60;99.90;;;;;;5113618;28;20216;-63
2022/07/28 02:21:32;;;;;;;3.07;1.33;;;12.50;99.90;;;;;;5113368;28;20809;-63
2022/07/28 02:24:00;;;;;;;3.43;1.23;;;12.50;99.90;;;;;;5113962;28;20268;-63
2022/07/28 02:26:32;;;;;;;2.30;1.30;;;12.50;1.00;;;;;;5113076;28;20235;-63
2022/07/28 02:29:02;;;;;;;4.17;1.50;;;12.40;1.00;;;;;;5113732;27;20211;-64
2022/07/28 02:31:37;;;;;;;3.63;1.37;;;12.30;99.90;;;;;;5113385;28;20593;-64
2022/07/28 02:34:08;;;;;;;3.53;1.70;;;12.30;1.00;;;;;;5113487;28;20247;-64
2022/07/28 02:36:38;;;;;;;3.07;1.40;;;12.30;93.90;;;;;;5112855;28;20204;-63
2022/07/28 02:39:08;;;;;;;3.07;1.70;;;12.30;99.90;;;;;;5113168;28;20211;-64
2022/07/28 02:41:41;;;;;;;2.83;1.40;;;12.20;99.90;;;;;;5113440;28;20219;-63
2022/07/28 02:44:14;;;;;;;5.57;1.53;;;12.20;99.90;;;;;;5113309;28;20571;-64
2022/07/28 02:46:44;;;;;;;2.73;1.60;;;12.10;1.00;;;;;;5112883;28;20214;-63
2022/07/28 02:49:16;;;;;;;3.73;1.80;;;12.10;99.90;;;;;;5112974;28;20218;-63
2022/07/28 02:51:45;;;;;;;5.13;1.50;;;12.00;99.90;;;;;;5113045;28;20210;-63
2022/07/28 02:54:13;;;;;;;4.20;1.83;;;12.00;99.90;;;;;;5112762;28;20581;-64
2022/07/28 02:56:41;;;;;;;2.23;1.43;;;11.90;99.90;;;;;;5112674;28;20200;-63
2022/07/28 02:59:09;;;;;;;4.17;1.80;;;11.90;99.90;;;;;;5112864;28;20273;-64
2022/07/28 03:01:37;;;;;;;2.50;1.67;;;11.90;99.90;;;;;;5112937;28;20203;-64
2022/07/28 03:04:04;;;;;;;3.37;1.63;;;11.90;1.00;;;;;;5112649;28;20214;-64
2022/07/28 03:06:32;;;;;;;4.30;1.60;;;11.90;1.00;;;;;;5112679;28;20207;-64
2022/07/28 03:08:59;;;;;;;4.03;1.80;;;11.90;1.00;;;;;;5112618;28;20666;-63
2022/07/28 03:11:26;;;;;;;6.13;1.70;;;11.90;1.00;;;;;;5112696;28;20310;-64
2022/07/28 03:13:53;;;;;;;2.60;1.57;;;11.80;1.00;;;;;;5111889;28;20204;-64
2022/07/28 03:16:20;;;;;;;2.83;1.60;;;11.70;1.00;;;;;;5112259;28;20670;-64
2022/07/28 03:18:46;;;;;;;4.53;1.63;;;11.80;1.00;;;;;;5112210;28;20584;-64
2022/07/28 03:21:13;;;;;;;3.43;1.70;;;11.70;1.00;;;;;;5112437;28;20579;-64
2022/07/28 03:23:43;;;;;;;2.33;1.47;;;11.70;1.00;;;;;;5112634;28;20594;-64
2022/07/28 03:26:15;;;;;;;5.30;2.13;;;11.70;1.00;;;;;;5112253;28;20210;-64
2022/07/28 03:28:43;;;;;;;2.73;1.60;;;11.70;1.00;;;;;;5112557;28;20223;-64
2022/07/28 03:31:11;;;;;;;3.10;1.70;;;11.60;1.00;;;;;;5112299;28;20233;-64
2022/07/28 03:33:38;;;;;;;6.47;2.20;;;11.60;1.00;;;;;;5112712;28;20199;-63
2022/07/28 03:36:11;;;;;;;4.60;1.70;;;11.60;1.00;;;;;;5112072;28;20253;-64
2022/07/28 03:38:44;;;;;;;2.20;1.97;;;11.60;1.00;;;;;;5112480;28;20227;-63
2022/07/28 03:41:13;;;;;;;3.40;2.00;;;11.50;1.00;;;;;;5112368;28;20230;-63
2022/07/28 03:43:41;;;;;;;6.63;2.07;;;11.50;1.00;;;;;;5112177;28;20208;-64
2022/07/28 03:46:08;;;;;;;3.37;1.73;;;11.50;1.00;;;;;;5112019;28;20202;-64
2022/07/28 03:48:35;;;;;;;5.53;2.43;;;11.50;1.00;;;;;;5112364;28;20200;-64
2022/07/28 03:51:02;;;;;;;6.47;1.93;;;11.50;1.00;;;;;;5112188;28;20227;-64
2022/07/28 03:53:29;;;;;;;6.20;1.93;;;11.50;1.00;;;;;;5112189;28;20276;-64
2022/07/28 03:55:57;;;;;;;3.73;1.60;;;11.50;1.00;;;;;;5111860;28;20322;-63
2022/07/28 03:58:25;;;;;;;3.30;2.00;;;11.50;1.00;;;;;;5112044;28;20702;-64
2022/07/28 04:00:52;;;;;;;2.93;2.20;;;11.50;1.00;;;;;;5112108;28;20296;-63
2022/07/28 04:03:20;;;;;;;4.87;2.03;;;11.50;1.00;;;;;;5112004;28;20210;-64
2022/07/28 04:05:47;;;;;;;4.77;1.90;;;11.50;1.00;;;;;;5112229;28;20623;-64
2022/07/28 04:08:14;;;;;;;3.43;1.97;;;11.40;1.00;;;;;;5111605;28;20214;-64
2022/07/28 04:10:41;;;;;;;4.13;1.90;;;11.40;1.00;;;;;;5112030;28;20228;-64
2022/07/28 04:13:09;;;;;;;6.23;2.27;;;11.40;2.90;;;;;;5112157;28;20207;-63
2022/07/28 04:15:35;;;;;;;4.23;1.93;;;11.40;5.90;;;;;;5112012;28;20208;-63
2022/07/28 04:18:02;;;;;;;4.03;2.20;;;11.40;9.70;;;;;;5111123;28;20943;-64
2022/07/28 04:20:29;;;;;;;7.43;2.10;;;11.40;12.70;;;;;;5111748;28;20782;-64
2022/07/28 04:22:56;;;;;;;7.77;2.40;;;11.40;13.60;;;;;;5111617;28;20637;-63
2022/07/28 04:25:25;;;;;;;3.53;1.90;;;11.40;14.30;;;;;;5112995;28;20214;-64
2022/07/28 04:27:52;;;;;;;6.23;2.20;;;11.40;15.10;;;;;;5115560;28;20204;-63
2022/07/28 04:30:23;;;;;;;7.00;2.13;;;11.50;18.40;;;;;;5115899;28;20230;-63
2022/07/28 04:32:51;;;;;;;4.23;2.20;;;11.50;16.10;;;;;;5115599;28;20203;-63
2022/07/28 04:35:18;;;;;;;5.63;2.30;;;11.60;16.80;;;;;;5115698;28;20673;-64
2022/07/28 04:37:47;;;;;;;5.30;2.17;;;11.60;15.60;;;;;;5114987;28;20310;-64
2022/07/28 04:40:14;;;;;;;5.03;1.93;;;11.70;11.10;;;;;;5115760;28;20227;-64
2022/07/28 04:42:42;;;;;;;4.20;2.00;;;11.80;8.30;;;;;;5115498;28;20265;-63
2022/07/28 04:45:11;;;;;;;5.13;1.97;;;11.90;7.40;;;;;;5115435;28;20207;-63
2022/07/28 04:47:52;;;;;;;3.33;1.70;;;11.90;5.50;;;;;;5113395;28;20286;-64
2022/07/28 04:50:20;;;;;;;4.57;2.00;;;12.00;1.00;;;;;;5111301;28;20236;-63
2022/07/28 04:52:48;;;;;;;6.17;2.20;;;12.00;1.00;;;;;;5114815;28;20800;-63
2022/07/28 04:55:15;;;;;;;4.03;2.00;;;12.10;1.00;;;;;;5115005;28;20254;-64
2022/07/28 04:57:42;;;;;;;5.07;2.10;;;12.10;1.00;;;;;;5114725;28;20269;-64
2022/07/28 05:00:12;;;;;;;4.33;2.30;;;12.00;1.00;;;;;;5114497;28;20224;-63
2022/07/28 05:02:39;;;;;;;13.47;1.97;;;12.00;1.00;;;;;;5114945;28;20295;-63
2022/07/28 05:05:08;;;;;;;6.33;1.93;;;12.10;1.00;;;;;;5114964;28;20218;-64
2022/07/28 05:07:35;;;;;;;7.60;2.20;;;12.10;1.00;;;;;;5114839;28;20199;-63
2022/07/28 05:10:03;;;;;;;5.00;2.20;;;12.10;1.00;;;;;;5114608;28;20224;-63
2022/07/28 05:12:30;;;;;;;3.27;2.03;;;12.10;1.00;;;;;;5114825;28;20276;-63
2022/07/28 05:14:57;;;;;;;6.30;2.50;;;12.10;1.00;;;;;;5114626;28;20195;-63
2022/07/28 05:17:24;;;;;;;7.10;2.37;;;12.10;1.00;;;;;;5114198;28;20212;-63
2022/07/28 05:19:51;;;;;;;3.23;2.30;;;12.20;1.00;;;;;;5114368;28;20227;-63
2022/07/28 05:22:19;;;;;;;6.97;2.30;;;12.20;1.00;;;;;;5115417;28;20276;-63
2022/07/28 05:24:45;;;;;;;6.23;2.57;;;12.20;1.00;;;;;;5117842;28;20199;-63
2022/07/28 05:27:12;;;;;;;4.57;2.10;;;12.30;1.00;;;;;;5118792;27;20317;-63
2022/07/28 05:29:40;;;;;;;3.60;1.97;;;12.40;1.00;;;;;;5114508;28;20220;-63
2022/07/28 05:32:07;;;;;;;4.37;2.10;;;12.40;1.00;;;;;;5114391;28;20203;-63
2022/07/28 05:34:34;;;;;;;7.50;2.20;;;12.50;1.00;;;;;;5114339;28;20204;-64
2022/07/28 05:37:01;;;;;;;7.30;2.40;;;12.60;1.00;;;;;;5113192;28;20632;-65
2022/07/28 05:39:31;;;;;;;6.40;2.17;;;12.60;1.00;;;;;;5113896;28;20227;-65
2022/07/28 05:41:58;;;;;;;5.63;2.40;;;12.60;1.00;;;;;;5114062;28;20200;-63
2022/07/28 05:44:25;;;;;;;5.10;2.30;;;12.60;1.00;;;;;;5114025;28;20207;-63
2022/07/28 05:46:51;;;;;;;4.43;2.10;;;12.70;1.00;;;;;;5114090;28;20207;-63
2022/07/28 05:49:18;;;;;;;4.80;2.23;;;12.80;1.00;;;;;;5113912;28;20249;-63
2022/07/28 05:51:45;;;;;;;6.70;2.47;;;12.80;1.00;;;;;;5114117;28;20207;-63
2022/07/28 05:54:12;;;;;;;5.60;2.20;;;13.00;1.00;;;;;;5113926;28;20199;-64
2022/07/28 05:56:41;;;;;;;6.90;2.60;;;13.10;1.00;;;;;;5113549;28;20207;-63
2022/07/28 05:59:09;;;;;;;3.70;2.30;;;13.10;1.00;;;;;;5113231;28;20865;-64
2022/07/28 06:01:36;;;;;;;8.90;2.67;;;13.10;1.00;;;;;;5113924;28;20211;-64
2022/07/28 06:04:03;;;;;;;3.40;2.37;;;13.20;1.00;;;;;;5113652;28;20207;-63
2022/07/28 06:06:30;;;;;;;3.03;2.20;;;13.20;1.00;;;;;;5113523;28;20229;-64
2022/07/28 06:08:56;;;;;;;5.43;2.60;;;13.30;1.00;;;;;;5113512;28;20207;-64
2022/07/28 06:11:23;;;;;;;4.60;2.30;;;13.30;1.00;;;;;;5113475;28;20592;-63
2022/07/28 06:13:52;;;;;;;5.03;2.30;;;13.40;1.00;;;;;;5113611;28;20212;-65
2022/07/28 06:16:21;;;;;;;4.33;2.37;;;13.50;1.00;;;;;;5112904;27;20667;-64
2022/07/28 06:18:47;;;;;;;5.90;2.50;;;13.60;1.00;;;;;;5113177;28;20571;-63
2022/07/28 06:21:14;;;;;;;4.83;2.33;;;13.70;1.00;;;;;;5113052;28;20232;-64
2022/07/28 06:23:41;;;;;;;6.00;2.03;;;13.70;1.00;;;;;;5113463;28;20670;-64
2022/07/28 06:26:07;;;;;;;3.63;2.17;;;13.80;1.00;;;;;;5112891;28;20734;-63
2022/07/28 06:28:35;;;;;;;3.73;2.27;;;13.90;1.00;;;;;;5113657;28;20260;-64
2022/07/28 06:31:03;;;;;;;3.80;1.87;;;14.00;99.90;;;;;;5113467;28;20229;-65
2022/07/28 06:33:30;;;;;;;10.53;2.40;;;14.00;99.90;;;;;;5113265;28;20602;-63
2022/07/28 06:35:56;;;;;;;5.77;2.07;;;14.20;99.90;;;;;;5112714;28;20213;-64
2022/07/28 06:38:24;;;;;;;5.43;2.00;;;14.30;99.90;;;;;;5112992;28;20230;-63
2022/07/28 06:40:51;;;;;;;4.93;1.77;;;14.50;99.90;;;;;;5112975;28;20250;-63
2022/07/28 06:43:17;;;;;;;5.00;2.00;;;14.70;16.40;;;;;;5112975;28;20696;-63
2022/07/28 06:45:44;;;;;;;3.50;2.20;;;14.90;1.00;;;;;;5112969;28;20206;-69
2022/07/28 06:48:13;;;;;;;8.97;2.03;;;15.00;99.90;;;;;;5112246;28;20233;-66
2022/07/28 06:50:40;;;;;;;4.73;2.13;;;15.10;7.10;;;;;;5112500;28;20639;-66
2022/07/28 06:53:07;;;;;;;4.50;1.87;;;15.20;1.00;;;;;;5112530;28;20614;-62
2022/07/28 06:55:34;;;;;;;4.93;1.87;;;15.20;1.00;;;;;;5112906;28;20192;-67
2022/07/28 06:58:01;;;;;;;3.73;1.87;;;15.30;1.00;;;;;;5097903;28;20203;-68
2022/07/28 07:00:28;;;;;;;6.03;1.67;;;15.40;1.00;;;;;;5111556;28;20238;-69
2022/07/28 07:02:54;;;;;;;6.83;2.10;;;15.30;1.00;;;;;;5111559;28;20658;-63
2022/07/28 07:05:22;;;;;;;6.20;2.17;;;15.30;1.00;;;;;;5112098;28;20286;-64
2022/07/28 07:07:49;;;;;;;4.70;2.17;;;15.40;1.00;;;;;;5111890;28;20257;-64
2022/07/28 07:10:16;;;;;;;4.10;1.93;;;15.50;1.00;;;;;;5111741;28;20215;-64
2022/07/28 07:12:42;;;;;;;5.63;1.70;;;15.70;1.00;;;;;;5112288;27;20208;-64
2022/07/28 07:15:10;;;;;;;9.60;2.17;;;15.70;1.00;;;;;;5111687;28;20257;-63
2022/07/28 07:17:38;;;;;;;4.77;1.60;;;15.70;1.00;;;;;;5111524;28;20665;-63
2022/07/28 07:20:06;;;;;;;3.03;1.40;;;15.70;1.00;;;;;;5111156;28;20675;-63
2022/07/28 07:22:34;;;;;;;10.07;1.60;;;15.70;99.90;;;;;;5111890;28;20993;-64
2022/07/28 07:25:08;;;;;;;2.87;1.63;;;15.70;99.90;;;;;;5111938;28;20651;-64
2022/07/28 07:27:34;;;;;;;6.43;4.07;;;15.80;1.00;;;;;;5111313;28;20238;-64
2022/07/28 07:30:01;;;;;;;3.13;1.73;;;16.00;1.00;;;;;;5111530;28;20249;-63
2022/07/28 07:32:28;;;;;;;4.77;1.97;;;16.10;99.90;;;;;;5111740;28;20207;-63
2022/07/28 07:34:54;;;;;;;5.33;1.90;;;16.20;99.90;;;;;;5111810;28;20203;-64
2022/07/28 07:37:21;;;;;;;4.33;1.83;;;16.30;99.90;;;;;;5111301;28;20203;-61
2022/07/28 07:39:49;;;;;;;4.23;1.53;;;16.30;99.90;;;;;;5111420;28;20227;-64
2022/07/28 07:42:16;;;;;;;7.70;1.63;;;16.40;99.90;;;;;;5111440;28;20211;-64
2022/07/28 07:44:43;;;;;;;5.00;1.40;;;16.40;99.90;;;;;;5111948;28;20211;-66
2022/07/28 07:47:10;;;;;;;2.83;1.53;;;16.60;99.90;;;;;;5111333;28;20268;-64
2022/07/28 07:49:38;;;;;;;5.13;1.77;;;16.90;99.90;;;;;;5110837;28;20255;-66
2022/07/28 07:52:05;;;;;;;2.30;1.23;;;16.80;99.90;;;;;;5111774;28;20211;-65
2022/07/28 07:54:32;;;;;;;4.00;1.93;;;17.10;99.90;;;;;;5110979;28;20805;-65
2022/07/28 07:57:00;;;;;;;7.37;1.50;;;17.20;99.90;;;;;;5111027;28;20265;-64
2022/07/28 07:59:27;;;;;;;3.97;1.90;;;17.20;99.90;;;;;;5110872;28;20220;-64
2022/07/28 08:01:54;;;;;;;5.17;1.60;;;17.50;99.90;;;;;;5115061;28;20746;-65
2022/07/28 08:04:20;;;;;;;5.13;1.50;;;17.70;99.90;;;;;;5115863;28;20206;-64
2022/07/28 08:06:47;;;;;;;4.20;1.70;;;17.80;99.90;;;;;;5114879;28;20235;-65
2022/07/28 08:09:14;;;;;;;5.97;1.60;;;17.80;99.90;;;;;;5115415;28;20203;-64
2022/07/28 08:11:41;;;;;;;4.70;1.60;;;18.00;99.90;;;;;;5115027;28;20627;-64
2022/07/28 08:14:09;;;;;;;6.27;1.70;;;18.00;99.90;;;;;;5115552;28;20220;-67
2022/07/28 08:16:37;;;;;;;1.83;1.00;;;18.20;99.90;;;;;;5114529;28;21010;-66
2022/07/28 08:19:04;;;;;;;2.63;1.27;;;18.40;99.90;;;;;;5115110;28;20615;-68
2022/07/28 08:21:30;;;;;;;8.13;1.27;;;18.60;99.90;;;;;;5115081;27;20234;-68
2022/07/28 08:23:57;;;;;;;3.90;1.20;;;18.60;99.90;;;;;;5115462;27;20260;-67
2022/07/28 08:26:24;;;;;;;3.07;1.30;;;18.20;99.90;;;;;;5115316;28;20619;-67
2022/07/28 08:28:52;;;;;;;5.13;1.20;;;18.10;99.90;;;;;;5113917;28;20206;-64
2022/07/28 08:31:20;;;;;;;2.93;1.13;;;18.20;99.90;;;;;;5114189;28;20280;-65
2022/07/28 08:33:47;;;;;;;3.27;1.23;;;18.40;99.90;;;;;;5115065;28;20211;-65
2022/07/28 08:36:14;;;;;;;7.23;1.40;;;18.50;99.90;;;;;;5114742;28;20211;-64
2022/07/28 08:38:41;;;;;;;5.40;1.20;;;18.70;99.90;;;;;;5114446;28;20309;-66
2022/07/28 08:41:12;;;;;;;4.43;1.20;;;18.90;99.90;;;;;;5114640;27;20230;-65
2022/07/28 08:43:41;;;;;;;5.30;1.30;;;19.20;99.90;;;;;;5114472;28;20214;-66
2022/07/28 08:46:08;;;;;;;5.63;1.20;;;19.30;99.90;;;;;;5114571;28;20224;-66
2022/07/28 08:48:38;;;;;;;2.33;0.90;;;19.20;99.90;;;;;;5114747;27;20212;-66
2022/07/28 08:51:06;;;;;;;4.83;1.20;;;19.30;99.90;;;;;;5114152;28;20231;-66
2022/07/28 08:53:35;;;;;;;2.83;1.30;;;19.10;99.90;;;;;;5114673;28;20207;-67
2022/07/28 08:56:05;;;;;;;2.23;1.20;;;19.20;99.90;;;;;;5114196;28;20211;-66
2022/07/28 08:58:33;;;;;;;4.10;1.03;;;19.40;99.90;;;;;;5117973;28;20212;-65
2022/07/28 09:01:00;;;;;;;4.30;1.00;;;19.30;99.90;;;;;;5120205;28;20238;-64
2022/07/28 09:03:28;;;;;;;3.87;1.20;;;19.40;99.90;;;;;;5116511;28;20204;-65
2022/07/28 09:05:57;;;;;;;2.00;1.23;;;19.70;99.90;;;;;;5114345;28;20588;-63
2022/07/28 09:08:24;;;;;;;5.67;1.20;;;19.90;99.90;;;;;;5113915;28;20726;-66
2022/07/28 09:10:52;;;;;;;3.30;1.00;;;20.10;99.90;;;;;;5114201;27;20642;-65
2022/07/28 09:13:19;;;;;;;4.00;1.23;;;20.40;99.90;;;;;;5113095;28;20210;-62
2022/07/28 09:15:46;;;;;;;3.17;1.20;;;20.60;99.90;;;;;;5114323;28;20203;-65
2022/07/28 09:18:13;;;;;;;7.37;1.47;;;20.40;99.90;;;;;;5113622;28;20219;-66
2022/07/28 09:20:40;;;;;;;3.83;1.40;;;19.90;99.90;;;;;;5113871;28;20314;-66
2022/07/28 09:23:09;;;;;;;3.67;1.40;;;19.70;99.90;;;;;;5114133;28;20204;-65
2022/07/28 09:25:36;;;;;;;1.00;0.80;;;19.90;99.90;;;;;;5114185;28;20199;-62
2022/07/28 09:28:08;;;;;;;6.17;1.00;;;19.90;99.90;;;;;;5114153;28;20241;-62
2022/07/28 09:30:36;;;;;;;2.87;0.87;;;19.60;99.90;;;;;;5113345;28;20228;-63
2022/07/28 09:33:19;;;;;;;2.13;1.20;;;19.40;99.90;;;;;;5113940;28;20214;-62
2022/07/28 09:35:50;;;;;;;2.83;0.90;;;19.80;99.90;;;;;;5113587;27;20214;-62
2022/07/28 09:38:20;;;;;;;2.77;0.90;;;20.10;99.90;;;;;;5113807;28;20203;-62
2022/07/28 09:40:58;;;;;;;4.93;1.67;;;20.30;99.90;;;;;;5113385;28;20224;-62
2022/07/28 09:43:35;;;;;;;3.77;0.87;;;20.50;99.90;;;;;;5113892;27;20252;-62
2022/07/28 09:46:08;;;;;;;2.77;1.00;;;20.70;99.90;;;;;;5113052;28;20203;-62
2022/07/28 09:48:35;;;;;;;2.30;1.50;;;20.80;99.90;;;;;;5113390;28;20718;-61
2022/07/28 09:51:11;;;;;;;3.50;1.20;;;20.60;99.90;;;;;;5112935;28;20223;-61
2022/07/28 09:53:40;;;;;;;2.57;1.00;;;20.60;99.90;;;;;;5113450;28;20294;-65
2022/07/28 09:56:07;;;;;;;3.70;1.20;;;20.90;99.90;;;;;;5112829;28;20219;-64
2022/07/28 09:58:35;;;;;;;5.10;0.97;;;20.80;99.90;;;;;;5113349;28;20256;-65
2022/07/28 10:01:06;;;;;;;4.33;1.10;;;21.00;99.90;;;;;;5112928;28;20698;-65
2022/07/28 10:03:33;;;;;;;3.97;1.40;;;20.80;99.90;;;;;;5113082;28;20200;-64
2022/07/28 10:06:03;;;;;;;4.70;1.10;;;21.00;99.90;;;;;;5114140;28;20215;-65
2022/07/28 10:08:44;;;;;;;2.57;0.80;;;21.00;99.90;;;;;;5113681;28;20216;-66
2022/07/28 10:11:12;;;;;;;2.33;1.40;;;21.00;99.90;;;;;;5112746;28;20296;-65
2022/07/28 10:14:02;;;;;;;3.97;1.37;;;21.00;99.90;;;;;;5112682;28;20207;-65
2022/07/28 10:16:31;;;;;;;5.07;1.30;;;21.10;99.90;;;;;;5112873;28;20208;-65
2022/07/28 10:19:00;;;;;;;4.67;1.30;;;21.10;99.90;;;;;;5112504;28;20212;-65
2022/07/28 10:21:28;;;;;;;4.13;1.20;;;21.20;99.90;;;;;;5112557;28;20318;-65
2022/07/28 10:23:58;;;;;;;3.53;1.17;;;21.30;99.90;;;;;;5112949;28;20200;-66
2022/07/28 10:26:30;;;;;;;2.77;1.20;;;21.40;99.90;;;;;;5112712;28;20207;-65
2022/07/28 10:29:02;;;;;;;8.70;1.43;;;21.40;99.90;;;;;;5112673;28;20294;-66
2022/07/28 10:31:34;;;;;;;3.13;1.23;;;21.40;99.90;;;;;;5112200;28;20223;-65
2022/07/28 10:34:03;;;;;;;2.90;1.00;;;21.30;99.90;;;;;;5112743;28;20203;-64
2022/07/28 10:36:32;;;;;;;2.93;1.07;;;21.40;99.90;;;;;;5112030;28;20207;-66
2022/07/28 10:39:06;;;;;;;4.50;1.30;;;21.40;99.90;;;;;;5112237;28;20204;-68
2022/07/28 10:41:40;;;;;;;4.17;1.07;;;21.60;99.90;;;;;;5112607;28;20299;-66
2022/07/28 10:44:12;;;;;;;3.23;1.10;;;21.80;99.90;;;;;;5110970;28;20752;-67
2022/07/28 10:46:43;;;;;;;2.93;0.90;;;21.70;99.90;;;;;;5112409;27;20196;-68
2022/07/28 10:49:10;;;;;;;9.17;1.47;;;21.60;99.90;;;;;;5111942;28;20674;-66
2022/07/28 10:51:39;;;;;;;2.23;1.00;;;21.60;99.90;;;;;;5111567;28;20208;-67
2022/07/28 10:54:13;;;;;;;2.93;1.17;;;21.80;99.90;;;;;;5112250;28;20203;-68
2022/07/28 10:56:49;;;;;;;3.50;0.83;;;22.00;99.90;;;;;;5112019;28;20677;-68
2022/07/28 10:59:38;;;;;;;3.07;0.90;;;22.10;99.90;;;;;;5111777;28;20211;-67
2022/07/28 11:02:04;;;;;;;2.73;0.80;;;22.00;99.90;;;;;;5112668;28;20207;-64
2022/07/28 11:04:57;;;;;;;2.73;0.90;;;21.70;99.90;;;;;;5111920;28;20674;-63
2022/07/28 11:07:38;;;;;;;5.90;1.10;;;21.60;99.90;;;;;;5111905;28;20230;-64
2022/07/28 11:10:17;;;;;;;1.20;0.70;;;21.50;99.90;;;;;;5111714;28;20310;-64
2022/07/28 11:12:48;;;;;;;1.87;0.90;;;21.80;99.90;;;;;;5112172;28;20206;-63
2022/07/28 11:15:28;;;;;;;5.50;1.43;;;22.10;99.90;;;;;;5111834;28;20252;-65
2022/07/28 11:18:00;;;;;;;4.73;1.00;;;22.10;99.90;;;;;;5111479;28;20211;-63
2022/07/28 11:21:02;;;;;;;3.30;1.17;;;22.20;99.90;;;;;;5111014;28;20322;-64
2022/07/28 11:23:56;;;;;;;3.53;1.00;;;22.20;99.90;;;;;;5107962;28;20226;-66
2022/07/28 11:26:36;;;;;;;4.73;1.00;;;22.30;99.90;;;;;;5097371;28;20207;-64
2022/07/28 11:29:16;;;;;;;5.30;1.30;;;22.20;99.90;;;;;;5111861;28;20214;-65
2022/07/28 11:32:02;;;;;;;1.77;1.00;;;22.40;99.90;;;;;;5111542;28;20237;-64
2022/07/28 11:35:06;;;;;;;2.03;1.00;;;22.60;99.90;;;;;;5111514;28;20584;-64
2022/07/28 11:38:09;;;;;;;2.93;0.90;;;22.40;99.90;;;;;;5111019;28;20202;-64
2022/07/28 11:40:37;;;;;;;3.77;1.13;;;22.40;99.90;;;;;;5111025;28;20227;-63
2022/07/28 11:43:38;;;;;;;4.20;1.10;;;22.40;99.90;;;;;;5111608;28;20204;-65
2022/07/28 11:46:36;;;;;;;3.50;1.17;;;22.50;99.90;;;;;;5111773;28;20295;-66
2022/07/28 11:49:20;;;;;;;4.07;1.20;;;22.80;99.90;;;;;;5110844;28;20199;-63
2022/07/28 11:52:19;;;;;;;3.47;0.97;;;22.60;99.90;;;;;;5111654;28;20210;-65
2022/07/28 11:55:04;;;;;;;3.53;1.07;;;22.80;99.90;;;;;;5077001;28;20207;-66
2022/07/28 11:57:38;;;;;;;3.70;1.10;;;23.10;99.90;;;;;;5111175;28;20192;-67
2022/07/28 12:00:07;;;;;;;4.03;1.30;;;23.30;99.90;;;;;;5110854;28;20250;-65
2022/07/28 12:02:34;;;;;;;6.43;1.40;;;22.90;99.90;;;;;;5111570;28;20211;-65
2022/07/28 12:05:08;;;;;;;3.10;1.00;;;23.10;99.90;;;;;;5111521;28;20203;-66
2022/07/28 12:07:37;;;;;;;3.13;1.37;;;22.90;99.90;;;;;;5110581;28;20294;-66
2022/07/28 12:10:37;;;;;;;4.17;1.30;;;22.90;99.90;;;;;;5110878;28;20228;-66
2022/07/28 12:13:06;;;;;;;3.17;1.20;;;22.90;99.90;;;;;;5048058;28;20214;-67
2022/07/28 12:15:34;;;;;;;2.07;1.63;;;23.10;99.90;;;;;;5048304;28;20292;-64
2022/07/28 12:18:01;;;;;;;2.90;1.40;;;23.10;99.90;;;;;;5076776;28;20207;-66
2022/07/28 12:20:31;;;;;;;3.63;0.90;;;23.20;99.90;;;;;;5110904;28;20235;-66
2022/07/28 12:23:03;;;;;;;2.00;1.17;;;23.20;99.90;;;;;;5111106;28;20249;-65
2022/07/28 12:25:30;;;;;;;5.43;1.33;;;23.10;99.90;;;;;;5111077;28;20226;-66
2022/07/28 12:27:57;;;;;;;7.13;1.00;;;23.20;99.90;;;;;;5110497;28;20673;-65
2022/07/28 12:30:26;;;;;;;4.63;1.30;;;23.30;99.90;;;;;;5110697;28;20226;-66
2022/07/28 12:32:55;;;;;;;4.10;1.50;;;22.90;99.90;;;;;;5110963;28;20203;-64
2022/07/28 12:35:23;;;;;;;4.50;1.30;;;22.70;99.90;;;;;;5112784;28;20256;-66
2022/07/28 12:37:50;;;;;;;3.83;1.40;;;22.80;99.90;;;;;;5114548;28;20763;-67
2022/07/28 12:40:19;;;;;;;3.70;1.27;;;22.90;99.90;;;;;;5113842;28;20584;-66
2022/07/28 12:42:52;;;;;;;3.70;1.20;;;22.90;99.90;;;;;;5111145;28;20214;-66
2022/07/28 12:45:19;;;;;;;7.13;1.23;;;22.70;99.90;;;;;;5110734;28;20204;-66
2022/07/28 12:47:45;;;;;;;3.43;1.30;;;22.50;99.90;;;;;;5113928;28;20207;-67
2022/07/28 12:50:15;;;;;;;4.97;1.10;;;22.90;99.90;;;;;;5113901;28;20706;-67
2022/07/28 12:52:44;;;;;;;6.73;2.73;;;23.30;99.90;;;;;;5114951;28;20204;-65
2022/07/28 12:55:22;;;;;;;6.10;1.33;;;23.50;99.90;;;;;;5114537;28;20253;-64
2022/07/28 12:57:50;;;;;;;5.57;1.30;;;23.80;99.90;;;;;;5113784;27;20688;-64
2022/07/28 13:00:20;;;;;;;1.53;1.00;;;23.90;99.90;;;;;;5113985;28;20752;-65
2022/07/28 13:02:47;;;;;;;2.10;1.30;;;24.20;99.90;;;;;;5114296;28;20281;-65
2022/07/28 13:05:29;;;;;;;7.13;1.47;;;24.30;99.90;;;;;;5114560;28;20750;-64
2022/07/28 13:08:03;;;;;;;3.97;1.20;;;24.10;99.90;;;;;;5113932;28;20614;-65